Time;durP1;ratioP1;P1;durP2;ratioP2;P2;SDS_P1;SDS_P2;PMS_P1;PMS_P2;Temp;Humidity;BMP_temperature;BMP_pressure;BME280_temperature;BME280_humidity;BME280_pressure;Samples;Min_cycle;Max_cycle;Signal;HPM_P1;HPM_P2
2021/07/29 00:02:25;;;;;;;4.78;2.90;;;15.60;99.90;;;;;;4960687;29;20081;-75
2021/07/29 00:04:51;;;;;;;5.65;2.90;;;15.60;99.90;;;;;;4960293;28;20019;-73
2021/07/29 00:07:17;;;;;;;3.10;2.72;;;15.60;99.90;;;;;;4943479;29;20027;-73
2021/07/29 00:09:46;;;;;;;12.85;3.03;;;15.50;99.90;;;;;;4960960;29;20539;-80
2021/07/29 00:12:12;;;;;;;4.82;2.70;;;15.50;99.90;;;;;;4942752;29;20090;-71
2021/07/29 00:14:38;;;;;;;4.50;2.83;;;15.50;99.90;;;;;;4943725;29;20024;-74
2021/07/29 00:17:06;;;;;;;5.53;3.00;;;15.50;99.90;;;;;;4960757;28;20105;-76
2021/07/29 00:19:31;;;;;;;4.90;2.53;;;15.60;99.90;;;;;;4942541;29;20074;-75
2021/07/29 00:21:57;;;;;;;5.03;2.70;;;15.60;99.90;;;;;;4943535;29;20039;-77
2021/07/29 00:24:25;;;;;;;7.63;3.30;;;15.70;99.90;;;;;;4960710;29;20038;-76
2021/07/29 00:26:51;;;;;;;5.72;2.72;;;15.70;99.90;;;;;;4960463;29;20407;-72
2021/07/29 00:29:17;;;;;;;3.58;2.42;;;15.70;99.90;;;;;;4943074;29;20019;-77
2021/07/29 00:31:42;;;;;;;6.38;2.97;;;15.70;99.90;;;;;;4960747;29;20503;-78
2021/07/29 00:34:08;;;;;;;5.95;3.28;;;15.70;99.90;;;;;;4942724;29;20169;-72
2021/07/29 00:36:33;;;;;;;6.85;2.90;;;15.60;99.90;;;;;;4957159;28;20151;-78
2021/07/29 00:39:00;;;;;;;5.50;2.88;;;15.60;99.90;;;;;;4957635;29;20134;-75
2021/07/29 00:41:25;;;;;;;2.67;2.45;;;15.50;99.90;;;;;;4956492;29;20019;-71
2021/07/29 00:44:02;;;;;;;6.80;2.70;;;15.40;99.90;;;;;;4957552;29;20388;-71
2021/07/29 00:46:29;;;;;;;6.50;3.05;;;15.40;99.90;;;;;;4939417;29;20391;-73
2021/07/29 00:48:55;;;;;;;5.47;2.88;;;15.40;99.90;;;;;;4957546;29;20464;-73
2021/07/29 00:51:21;;;;;;;7.07;3.15;;;15.40;99.90;;;;;;4957132;29;20031;-72
2021/07/29 00:53:47;;;;;;;4.93;2.72;;;15.30;99.90;;;;;;4956766;29;20031;-71
2021/07/29 00:56:13;;;;;;;6.03;2.78;;;15.30;99.90;;;;;;4957169;29;20431;-73
2021/07/29 00:58:38;;;;;;;5.30;2.72;;;15.20;99.90;;;;;;4957393;29;20066;-74
2021/07/29 01:01:04;;;;;;;5.07;2.63;;;15.20;99.90;;;;;;4939324;29;20039;-71
2021/07/29 01:03:30;;;;;;;5.22;2.60;;;15.10;99.90;;;;;;4956901;29;20050;-71
2021/07/29 01:05:56;;;;;;;5.97;2.83;;;15.10;99.90;;;;;;4957242;29;20046;-71
2021/07/29 01:08:22;;;;;;;8.57;3.35;;;15.10;99.90;;;;;;4956141;29;20040;-73
2021/07/29 01:10:47;;;;;;;5.55;2.40;;;15.00;99.90;;;;;;4939732;29;20118;-75
2021/07/29 01:13:13;;;;;;;5.75;2.30;;;15.10;99.90;;;;;;4956791;29;20098;-74
2021/07/29 01:15:38;;;;;;;4.22;2.65;;;15.00;99.90;;;;;;4956444;29;20035;-76
2021/07/29 01:18:04;;;;;;;4.70;2.63;;;15.00;99.90;;;;;;4956909;29;20034;-71
2021/07/29 01:20:30;;;;;;;5.53;3.15;;;15.00;99.90;;;;;;4939501;29;20027;-74
2021/07/29 01:22:56;;;;;;;6.28;2.92;;;14.90;99.90;;;;;;4956231;29;20079;-71
2021/07/29 01:25:21;;;;;;;3.75;2.53;;;14.90;99.90;;;;;;4956613;29;20058;-72
2021/07/29 01:27:47;;;;;;;5.43;2.80;;;14.90;99.90;;;;;;4956787;29;20384;-78
2021/07/29 01:30:13;;;;;;;7.32;3.00;;;15.00;99.90;;;;;;4938419;29;20030;-70
2021/07/29 01:32:40;;;;;;;6.15;2.65;;;15.00;99.90;;;;;;4956773;29;20380;-71
2021/07/29 01:35:08;;;;;;;4.10;2.60;;;15.10;99.90;;;;;;4956834;29;20479;-75
2021/07/29 01:37:34;;;;;;;4.85;2.63;;;15.20;99.90;;;;;;4955746;29;20106;-71
2021/07/29 01:40:00;;;;;;;5.20;2.65;;;15.30;99.90;;;;;;4956474;29;20102;-73
2021/07/29 01:42:25;;;;;;;6.15;2.92;;;15.40;99.90;;;;;;4955979;29;20118;-71
2021/07/29 01:44:51;;;;;;;8.00;2.70;;;15.50;99.90;;;;;;4938956;29;20034;-75
2021/07/29 01:47:16;;;;;;;7.25;2.47;;;15.60;99.90;;;;;;4937959;29;20027;-78
2021/07/29 01:49:42;;;;;;;6.38;2.30;;;15.60;99.90;;;;;;4956019;29;20432;-70
2021/07/29 01:52:09;;;;;;;5.57;2.53;;;15.60;99.90;;;;;;4956590;29;20027;-70
2021/07/29 01:54:34;;;;;;;3.95;2.28;;;15.60;99.90;;;;;;4956216;29;20491;-71
2021/07/29 01:57:00;;;;;;;5.75;3.05;;;15.60;99.90;;;;;;4955637;29;20035;-71
2021/07/29 01:59:25;;;;;;;5.15;2.30;;;15.60;99.90;;;;;;4938526;29;20180;-71
2021/07/29 02:01:51;;;;;;;7.28;2.60;;;15.70;99.90;;;;;;4955991;29;20031;-71
2021/07/29 02:04:16;;;;;;;4.18;2.38;;;15.80;99.90;;;;;;4937907;29;20510;-73
2021/07/29 02:06:42;;;;;;;4.00;2.50;;;15.80;99.90;;;;;;4956072;29;20542;-76
2021/07/29 02:09:07;;;;;;;7.30;2.47;;;15.90;99.90;;;;;;4938846;29;20030;-72
2021/07/29 02:11:35;;;;;;;4.00;2.53;;;15.80;99.90;;;;;;4955124;29;20070;-71
2021/07/29 02:14:01;;;;;;;6.70;2.67;;;15.80;99.90;;;;;;4938803;29;20024;-71
2021/07/29 02:16:27;;;;;;;5.07;2.35;;;15.70;99.90;;;;;;4955689;29;20026;-79
2021/07/29 02:18:53;;;;;;;8.40;2.72;;;15.60;99.90;;;;;;4955236;29;20031;-78
2021/07/29 02:21:19;;;;;;;8.95;2.55;;;15.50;99.90;;;;;;4955410;29;20098;-72
2021/07/29 02:23:45;;;;;;;6.65;2.50;;;15.40;99.90;;;;;;4955955;29;20075;-72
2021/07/29 02:26:11;;;;;;;6.90;2.60;;;15.30;99.90;;;;;;4954920;29;20105;-73
2021/07/29 02:28:37;;;;;;;6.82;3.10;;;15.20;99.90;;;;;;4955630;29;20087;-73
2021/07/29 02:31:02;;;;;;;8.32;2.78;;;15.10;99.90;;;;;;4938216;29;20030;-74
2021/07/29 02:33:28;;;;;;;5.47;2.53;;;15.10;99.90;;;;;;4954636;29;20358;-75
2021/07/29 02:35:53;;;;;;;6.78;3.13;;;15.00;99.90;;;;;;4955724;29;20034;-73
2021/07/29 02:38:19;;;;;;;4.55;2.28;;;14.90;99.90;;;;;;4955081;29;20027;-70
2021/07/29 02:40:44;;;;;;;7.50;2.70;;;14.90;99.90;;;;;;4954914;29;20023;-74
2021/07/29 02:43:10;;;;;;;10.40;3.13;;;14.80;99.90;;;;;;4938175;29;20459;-73
2021/07/29 02:45:35;;;;;;;8.52;3.53;;;14.80;99.90;;;;;;4955625;29;20373;-74
2021/07/29 02:48:01;;;;;;;6.43;2.58;;;14.80;99.90;;;;;;4954538;29;20039;-72
2021/07/29 02:50:26;;;;;;;9.77;3.40;;;14.70;99.90;;;;;;4954764;29;20023;-76
2021/07/29 02:52:52;;;;;;;10.32;2.83;;;14.70;99.90;;;;;;4937143;29;20051;-70
2021/07/29 02:55:17;;;;;;;8.20;2.55;;;14.70;99.90;;;;;;4954757;29;20027;-70
2021/07/29 02:57:43;;;;;;;7.53;2.95;;;14.70;99.90;;;;;;4955164;29;20045;-70
2021/07/29 03:00:09;;;;;;;7.25;3.05;;;14.80;99.90;;;;;;4953930;28;20055;-71
2021/07/29 03:02:35;;;;;;;3.70;2.63;;;14.90;99.90;;;;;;4937531;29;20042;-71
2021/07/29 03:05:00;;;;;;;8.50;2.65;;;15.00;99.90;;;;;;4954941;29;20376;-70
2021/07/29 03:07:26;;;;;;;6.80;2.83;;;15.00;99.90;;;;;;4954083;29;20023;-75
2021/07/29 03:09:53;;;;;;;11.68;3.60;;;15.10;99.90;;;;;;4954893;29;20498;-70
2021/07/29 03:12:19;;;;;;;6.82;2.90;;;15.00;99.90;;;;;;4954914;29;20077;-70
2021/07/29 03:14:46;;;;;;;10.82;3.05;;;15.00;99.90;;;;;;4954523;29;20480;-71
2021/07/29 03:17:12;;;;;;;8.27;2.55;;;15.10;99.90;;;;;;4937538;29;20031;-73
2021/07/29 03:19:37;;;;;;;6.93;3.00;;;15.10;99.90;;;;;;4954784;29;20027;-71
2021/07/29 03:22:03;;;;;;;7.07;3.08;;;15.20;99.90;;;;;;4954396;29;20081;-71
2021/07/29 03:24:29;;;;;;;5.90;2.25;;;15.30;99.90;;;;;;4954603;29;20024;-74
2021/07/29 03:26:54;;;;;;;7.13;2.58;;;15.30;99.90;;;;;;4954813;29;20488;-71
2021/07/29 03:29:20;;;;;;;6.13;2.72;;;15.40;99.90;;;;;;4954224;29;20490;-73
2021/07/29 03:31:45;;;;;;;9.60;3.03;;;15.40;99.90;;;;;;4937603;29;20082;-71
2021/07/29 03:34:11;;;;;;;11.07;3.03;;;15.50;99.90;;;;;;4954497;29;20031;-71
2021/07/29 03:36:37;;;;;;;10.15;2.88;;;15.50;99.90;;;;;;4953901;29;20412;-72
2021/07/29 03:39:05;;;;;;;5.97;2.55;;;15.50;99.90;;;;;;4954883;29;20420;-70
2021/07/29 03:41:31;;;;;;;8.00;3.33;;;15.50;99.90;;;;;;4954259;29;20031;-74
2021/07/29 03:43:56;;;;;;;10.50;3.22;;;15.60;99.90;;;;;;4954120;29;20102;-71
2021/07/29 03:46:22;;;;;;;7.13;3.03;;;15.60;99.90;;;;;;4937210;29;20031;-74
2021/07/29 03:48:48;;;;;;;8.52;3.38;;;15.60;99.90;;;;;;4954559;29;20499;-71
2021/07/29 03:51:13;;;;;;;10.68;3.00;;;15.60;99.90;;;;;;4953547;29;20074;-71
2021/07/29 03:53:39;;;;;;;9.77;3.78;;;15.70;99.90;;;;;;4954615;29;20515;-72
2021/07/29 03:56:07;;;;;;;8.93;3.03;;;15.70;99.90;;;;;;4954098;29;20353;-70
2021/07/29 03:58:35;;;;;;;14.50;3.95;;;15.70;99.90;;;;;;4936990;29;20070;-77
2021/07/29 04:01:01;;;;;;;9.18;3.05;;;15.70;99.90;;;;;;4937161;29;20050;-76
2021/07/29 04:03:26;;;;;;;6.68;2.78;;;15.80;99.90;;;;;;4953592;29;20039;-71
2021/07/29 04:05:52;;;;;;;8.25;3.45;;;15.80;99.90;;;;;;4937385;29;20024;-74
2021/07/29 04:08:17;;;;;;;9.80;2.97;;;15.80;99.90;;;;;;4954133;29;20027;-70
2021/07/29 04:10:43;;;;;;;9.25;2.80;;;15.90;99.90;;;;;;4954587;28;20357;-71
2021/07/29 04:13:08;;;;;;;11.40;3.35;;;15.90;99.90;;;;;;4958092;29;20069;-70
2021/07/29 04:15:34;;;;;;;7.70;2.80;;;15.90;99.90;;;;;;4957833;29;20030;-79
2021/07/29 04:17:59;;;;;;;7.85;2.95;;;15.90;99.90;;;;;;4957576;29;20047;-71
2021/07/29 04:20:25;;;;;;;11.52;2.80;;;15.90;99.90;;;;;;4957587;29;20180;-73
2021/07/29 04:22:50;;;;;;;6.68;2.55;;;15.90;99.90;;;;;;4940777;29;20039;-73
2021/07/29 04:25:16;;;;;;;8.48;3.20;;;15.90;99.90;;;;;;4957022;29;20020;-76
2021/07/29 04:27:41;;;;;;;11.02;4.00;;;15.90;99.90;;;;;;4958115;29;20072;-72
2021/07/29 04:30:08;;;;;;;8.02;2.80;;;15.90;99.90;;;;;;4957877;29;20019;-78
2021/07/29 04:32:35;;;;;;;5.72;2.78;;;15.90;99.90;;;;;;4956831;29;20499;-77
2021/07/29 04:35:02;;;;;;;9.57;2.80;;;15.90;99.90;;;;;;4957705;29;20011;-77
2021/07/29 04:37:28;;;;;;;10.85;2.97;;;15.90;99.90;;;;;;4957372;29;20484;-72
2021/07/29 04:39:53;;;;;;;6.43;2.92;;;15.80;99.90;;;;;;4956915;29;20043;-71
2021/07/29 04:42:19;;;;;;;9.15;3.40;;;15.80;99.90;;;;;;4957392;29;20032;-73
2021/07/29 04:44:44;;;;;;;6.25;3.20;;;15.70;99.90;;;;;;4957657;29;20023;-71
2021/07/29 04:47:11;;;;;;;10.27;3.55;;;15.70;99.90;;;;;;4956980;29;20431;-72
2021/07/29 04:49:38;;;;;;;8.57;3.63;;;15.60;99.90;;;;;;4957429;29;20109;-71
2021/07/29 04:52:04;;;;;;;11.82;3.42;;;15.60;99.90;;;;;;4957451;29;20019;-76
2021/07/29 04:54:30;;;;;;;11.38;3.30;;;15.60;99.90;;;;;;4956399;29;20428;-74
2021/07/29 04:56:55;;;;;;;11.02;4.38;;;15.50;99.90;;;;;;4957308;29;20027;-77
2021/07/29 04:59:21;;;;;;;9.65;3.13;;;15.40;99.90;;;;;;4956593;29;20058;-76
2021/07/29 05:01:47;;;;;;;9.25;3.47;;;15.20;99.90;;;;;;4957165;29;20023;-72
2021/07/29 05:04:12;;;;;;;10.77;3.90;;;15.10;99.90;;;;;;4957101;29;20031;-74
2021/07/29 05:06:38;;;;;;;11.43;3.17;;;15.00;99.90;;;;;;4956424;29;20023;-79
2021/07/29 05:09:04;;;;;;;11.95;3.47;;;15.00;99.90;;;;;;4957083;29;20056;-72
2021/07/29 05:11:30;;;;;;;15.52;3.60;;;15.00;99.90;;;;;;4956665;29;20082;-71
2021/07/29 05:13:55;;;;;;;9.90;3.30;;;14.90;99.90;;;;;;4939077;29;20491;-73
2021/07/29 05:16:21;;;;;;;7.97;3.00;;;14.90;99.90;;;;;;4939661;29;20024;-71
2021/07/29 05:18:46;;;;;;;9.07;3.63;;;14.90;99.90;;;;;;4956957;29;20027;-73
2021/07/29 05:21:12;;;;;;;11.15;3.28;;;14.90;99.90;;;;;;4955637;28;20019;-73
2021/07/29 05:23:37;;;;;;;14.27;3.88;;;15.00;99.90;;;;;;4956859;29;20058;-76
2021/07/29 05:26:03;;;;;;;8.57;3.28;;;15.00;99.90;;;;;;4956808;29;20464;-71
2021/07/29 05:28:29;;;;;;;8.85;3.28;;;15.10;99.90;;;;;;4955801;29;20035;-74
2021/07/29 05:30:55;;;;;;;12.45;4.18;;;15.10;99.90;;;;;;4956602;29;20027;-72
2021/07/29 05:33:20;;;;;;;10.30;3.80;;;15.10;99.90;;;;;;4939450;29;20031;-74
2021/07/29 05:35:46;;;;;;;9.95;3.60;;;15.20;99.90;;;;;;4956113;29;20019;-75
2021/07/29 05:38:12;;;;;;;11.23;3.60;;;15.20;99.90;;;;;;4956206;29;20027;-74
2021/07/29 05:40:38;;;;;;;13.50;3.50;;;15.50;99.90;;;;;;4956442;29;20023;-72
2021/07/29 05:43:03;;;;;;;9.32;3.25;;;15.70;99.90;;;;;;4955938;29;20082;-70
2021/07/29 05:45:29;;;;;;;10.07;3.22;;;15.90;99.90;;;;;;4956158;29;20027;-74
2021/07/29 05:47:55;;;;;;;10.85;3.90;;;16.10;99.90;;;;;;4956332;29;20481;-73
2021/07/29 05:50:21;;;;;;;8.82;2.85;;;16.20;99.90;;;;;;4955546;29;20027;-76
2021/07/29 05:52:47;;;;;;;10.90;3.20;;;16.30;99.90;;;;;;4956478;29;20023;-71
2021/07/29 05:55:13;;;;;;;9.52;2.95;;;16.30;99.90;;;;;;4955926;29;20090;-70
2021/07/29 05:57:39;;;;;;;11.70;3.10;;;16.30;99.90;;;;;;4955670;29;20035;-72
2021/07/29 06:00:05;;;;;;;15.57;3.70;;;16.30;99.90;;;;;;4956055;29;20054;-78
2021/07/29 06:02:31;;;;;;;8.40;3.15;;;16.30;99.90;;;;;;4942315;28;20038;-71
2021/07/29 06:04:56;;;;;;;9.55;3.20;;;16.30;99.90;;;;;;4958874;28;20031;-71
2021/07/29 06:07:22;;;;;;;13.60;4.22;;;16.10;99.90;;;;;;4955789;29;20361;-71
2021/07/29 06:09:47;;;;;;;9.38;3.35;;;16.10;99.90;;;;;;4955139;29;20034;-72
2021/07/29 06:12:13;;;;;;;11.23;2.80;;;16.10;99.90;;;;;;4955740;29;20122;-72
2021/07/29 06:14:39;;;;;;;14.57;3.50;;;16.20;99.90;;;;;;4956052;29;20074;-70
2021/07/29 06:17:05;;;;;;;11.50;3.50;;;16.40;99.90;;;;;;4971997;28;20038;-73
2021/07/29 06:19:33;;;;;;;14.45;3.50;;;16.50;99.90;;;;;;4973081;28;20030;-75
2021/07/29 06:21:59;;;;;;;10.43;3.80;;;16.60;99.90;;;;;;4975055;28;20033;-81
2021/07/29 06:24:26;;;;;;;9.65;3.20;;;16.70;99.90;;;;;;4974316;28;20046;-70
2021/07/29 06:26:52;;;;;;;9.90;3.35;;;16.80;99.90;;;;;;4975174;28;20027;-72
2021/07/29 06:29:18;;;;;;;10.98;3.28;;;16.60;99.90;;;;;;4975017;28;20110;-72
2021/07/29 06:31:44;;;;;;;9.73;3.65;;;16.50;99.90;;;;;;4974255;28;20109;-70
2021/07/29 06:34:09;;;;;;;11.73;3.92;;;16.40;99.90;;;;;;4938441;29;20456;-74
2021/07/29 06:36:35;;;;;;;14.75;4.10;;;16.40;99.90;;;;;;4955500;29;20062;-71
2021/07/29 06:39:02;;;;;;;10.38;3.65;;;16.40;99.90;;;;;;4937690;29;20031;-73
2021/07/29 06:41:27;;;;;;;10.98;4.18;;;16.40;99.90;;;;;;4955213;29;20035;-70
2021/07/29 06:43:53;;;;;;;20.88;4.35;;;16.40;99.90;;;;;;4955525;29;20033;-70
2021/07/29 06:46:19;;;;;;;11.60;3.78;;;16.40;99.90;;;;;;4954544;29;20066;-75
2021/07/29 06:48:44;;;;;;;10.82;4.93;;;16.50;99.90;;;;;;4936083;29;20031;-84
2021/07/29 06:51:10;;;;;;;13.68;3.17;;;16.50;99.90;;;;;;4943892;28;20431;-82
2021/07/29 06:53:36;;;;;;;12.40;3.70;;;16.60;99.90;;;;;;4963711;28;20031;-78
2021/07/29 06:56:06;;;;;;;11.05;3.63;;;16.80;99.90;;;;;;4938088;29;20111;-74
2021/07/29 06:58:32;;;;;;;16.90;3.88;;;17.00;99.90;;;;;;4955683;28;20124;-75
2021/07/29 07:01:05;;;;;;;11.60;3.33;;;17.10;99.90;;;;;;4932739;29;20131;-76
2021/07/29 07:03:31;;;;;;;10.25;3.78;;;17.40;99.90;;;;;;4934551;29;20043;-76
2021/07/29 07:06:07;;;;;;;10.50;3.25;;;17.60;99.90;;;;;;4933566;29;20027;-75
2021/07/29 07:08:33;;;;;;;10.25;3.92;;;17.80;99.90;;;;;;4933983;29;20087;-76
2021/07/29 07:10:59;;;;;;;8.82;3.25;;;18.10;99.90;;;;;;4935365;29;20019;-74
2021/07/29 07:13:25;;;;;;;8.73;3.03;;;18.30;99.90;;;;;;4933208;29;20031;-73
2021/07/29 07:15:51;;;;;;;10.45;3.30;;;18.50;99.90;;;;;;4935481;29;20020;-77
2021/07/29 07:18:17;;;;;;;10.25;3.70;;;18.60;99.90;;;;;;4935247;29;20140;-73
2021/07/29 07:20:42;;;;;;;8.40;3.22;;;18.60;99.90;;;;;;4933927;29;20384;-71
2021/07/29 07:23:08;;;;;;;13.75;3.45;;;18.60;99.90;;;;;;4933740;29;20031;-74
2021/07/29 07:25:37;;;;;;;9.10;3.33;;;18.70;99.90;;;;;;4938635;29;20407;-76
2021/07/29 07:28:04;;;;;;;9.15;2.95;;;18.70;99.90;;;;;;4953510;29;20031;-75
2021/07/29 07:30:33;;;;;;;10.15;3.20;;;18.80;99.90;;;;;;4952333;29;20476;-72
2021/07/29 07:33:01;;;;;;;12.18;3.45;;;18.90;99.90;;;;;;4943331;29;20035;-71
2021/07/29 07:35:27;;;;;;;10.98;3.30;;;19.00;99.90;;;;;;4934474;29;20044;-77
2021/07/29 07:37:53;;;;;;;11.05;3.25;;;19.00;99.90;;;;;;4935634;29;20020;-85
2021/07/29 07:41:17;;;;;;;11.35;2.67;;;19.00;99.90;;;;;;4934644;29;20397;-87
2021/07/29 07:43:43;;;;;;;10.48;2.97;;;19.00;99.90;;;;;;4935239;29;20516;-74
2021/07/29 07:46:08;;;;;;;7.13;2.53;;;19.10;99.90;;;;;;4936401;29;20023;-72
2021/07/29 07:48:34;;;;;;;10.00;3.10;;;19.00;99.90;;;;;;4936164;29;20035;-76
2021/07/29 07:51:00;;;;;;;12.75;3.35;;;18.90;99.90;;;;;;4935461;29;20042;-75
2021/07/29 07:53:27;;;;;;;7.35;3.03;;;18.90;99.90;;;;;;4937653;29;20028;-73
2021/07/29 07:55:54;;;;;;;9.90;4.18;;;18.80;99.90;;;;;;4938139;29;20023;-75
2021/07/29 07:58:19;;;;;;;11.48;3.67;;;18.90;99.90;;;;;;4938414;29;20539;-71
2021/07/29 08:00:45;;;;;;;8.98;3.35;;;18.70;99.90;;;;;;4954822;29;20056;-75
2021/07/29 08:03:12;;;;;;;9.57;3.22;;;18.50;99.90;;;;;;4956923;29;20050;-70
2021/07/29 08:05:38;;;;;;;6.72;2.90;;;18.50;99.90;;;;;;4973446;28;20408;-73
2021/07/29 08:08:07;;;;;;;9.60;3.38;;;18.50;99.90;;;;;;4975155;28;20041;-72
2021/07/29 08:10:34;;;;;;;9.77;3.17;;;18.30;99.90;;;;;;4975810;28;20027;-74
2021/07/29 08:12:59;;;;;;;10.02;3.45;;;18.20;99.90;;;;;;4974933;28;20038;-72
2021/07/29 08:15:25;;;;;;;9.27;2.83;;;18.20;99.90;;;;;;4976306;28;20027;-72
2021/07/29 08:17:50;;;;;;;11.27;3.15;;;18.20;99.90;;;;;;4958683;28;20031;-72
2021/07/29 08:20:18;;;;;;;7.07;3.10;;;18.20;99.90;;;;;;4976663;28;20383;-72
2021/07/29 08:22:44;;;;;;;11.75;3.60;;;18.20;99.90;;;;;;4959091;28;20038;-70
2021/07/29 08:25:09;;;;;;;11.90;3.50;;;18.30;99.90;;;;;;4976007;28;20031;-72
2021/07/29 08:27:35;;;;;;;11.02;3.40;;;18.50;99.90;;;;;;4957500;28;20045;-72
2021/07/29 08:30:02;;;;;;;13.25;3.40;;;18.70;99.90;;;;;;4977077;28;20026;-71
2021/07/29 08:32:28;;;;;;;9.70;3.58;;;18.90;99.90;;;;;;4975416;28;20033;-70
2021/07/29 08:34:54;;;;;;;11.07;3.67;;;19.10;99.90;;;;;;4959155;28;20027;-71
2021/07/29 08:37:20;;;;;;;8.35;2.80;;;19.30;99.90;;;;;;4975992;28;20122;-73
2021/07/29 08:39:45;;;;;;;9.60;3.00;;;19.40;99.90;;;;;;4975643;28;20063;-73
2021/07/29 08:42:11;;;;;;;10.18;3.22;;;19.60;99.90;;;;;;4961994;28;20031;-74
2021/07/29 08:44:37;;;;;;;6.78;2.65;;;19.70;99.90;;;;;;4972006;28;20034;-71
2021/07/29 08:47:08;;;;;;;9.82;3.00;;;19.80;99.90;;;;;;4976046;28;20034;-72
2021/07/29 08:49:38;;;;;;;7.57;2.58;;;19.70;99.70;;;;;;4958713;28;20137;-73
2021/07/29 08:52:04;;;;;;;8.90;2.83;;;19.70;99.90;;;;;;4964086;28;20023;-69
2021/07/29 08:54:29;;;;;;;9.07;2.80;;;19.80;99.70;;;;;;4956242;29;20038;-76
2021/07/29 08:56:55;;;;;;;7.80;2.90;;;19.90;99.60;;;;;;4956025;28;20037;-72
2021/07/29 08:59:20;;;;;;;8.40;3.80;;;20.20;99.30;;;;;;4955742;29;20057;-72
2021/07/29 09:01:52;;;;;;;10.07;3.17;;;20.40;99.30;;;;;;4956349;29;20031;-72
2021/07/29 09:04:18;;;;;;;7.30;3.03;;;20.50;98.70;;;;;;4939922;28;20090;-75
2021/07/29 09:06:54;;;;;;;8.70;3.00;;;20.40;98.50;;;;;;4955540;29;20023;-73
2021/07/29 09:09:41;;;;;;;7.10;2.80;;;20.50;98.40;;;;;;4956414;29;20027;-72
2021/07/29 09:12:21;;;;;;;10.15;2.70;;;20.70;97.90;;;;;;4956466;29;20083;-72
2021/07/29 09:14:48;;;;;;;6.17;2.30;;;20.50;97.40;;;;;;4953344;28;20037;-70
2021/07/29 09:17:15;;;;;;;11.25;2.70;;;20.20;97.20;;;;;;4959390;28;20030;-77
2021/07/29 09:20:32;;;;;;;6.15;2.10;;;19.90;97.30;;;;;;4957225;28;20038;-85
2021/07/29 09:23:15;;;;;;;9.20;3.25;;;19.80;98.20;;;;;;4966736;28;20049;-78
2021/07/29 09:25:41;;;;;;;7.93;2.55;;;19.80;97.60;;;;;;4920184;29;20027;-75
2021/07/29 09:28:07;;;;;;;10.73;3.33;;;19.90;98.10;;;;;;4918712;29;20027;-73
2021/07/29 09:30:33;;;;;;;7.00;2.75;;;20.00;97.90;;;;;;4936302;29;20028;-74
2021/07/29 09:33:12;;;;;;;9.02;2.35;;;20.00;97.10;;;;;;4919919;29;20441;-74
2021/07/29 09:35:41;;;;;;;7.93;2.50;;;20.00;96.80;;;;;;4945490;28;20543;-74
2021/07/29 09:38:10;;;;;;;9.23;2.83;;;20.20;96.80;;;;;;4958291;28;20539;-73
2021/07/29 09:40:48;;;;;;;10.32;2.85;;;20.40;95.70;;;;;;4964645;28;20501;-72
2021/07/29 09:43:19;;;;;;;14.82;3.22;;;20.50;95.90;;;;;;4968160;28;20029;-74
2021/07/29 09:45:50;;;;;;;7.90;2.33;;;20.70;95.70;;;;;;4944017;28;20483;-72
2021/07/29 09:48:17;;;;;;;8.40;2.25;;;20.90;94.80;;;;;;4974194;28;20448;-71
2021/07/29 09:50:44;;;;;;;6.97;2.47;;;21.00;94.90;;;;;;4974004;28;20483;-79
2021/07/29 09:53:10;;;;;;;8.68;2.75;;;21.40;94.50;;;;;;4957493;28;20085;-71
2021/07/29 09:55:36;;;;;;;9.48;2.92;;;21.60;94.10;;;;;;4972374;28;20484;-75
2021/07/29 09:58:03;;;;;;;8.40;3.03;;;21.60;94.20;;;;;;4957862;28;20046;-72
2021/07/29 10:00:29;;;;;;;12.30;2.75;;;21.50;93.60;;;;;;4963859;28;20043;-69
2021/07/29 10:02:56;;;;;;;9.90;3.15;;;21.30;94.10;;;;;;4973424;28;20034;-71
2021/07/29 10:05:26;;;;;;;8.60;3.00;;;21.40;94.40;;;;;;4974642;28;20031;-76
2021/07/29 10:07:55;;;;;;;12.90;3.80;;;21.50;93.60;;;;;;4973808;28;20490;-73
2021/07/29 10:10:22;;;;;;;9.13;3.10;;;21.50;94.30;;;;;;4972808;28;20030;-72
2021/07/29 10:12:49;;;;;;;6.78;3.03;;;21.40;94.70;;;;;;4960657;28;20031;-72
2021/07/29 10:15:43;;;;;;;11.95;3.70;;;21.30;94.50;;;;;;4945412;29;20095;-80
2021/07/29 10:18:11;;;;;;;12.82;3.72;;;21.10;94.10;;;;;;4937965;29;20042;-73
2021/07/29 10:20:38;;;;;;;9.13;3.15;;;21.00;93.80;;;;;;4955616;29;20019;-75
2021/07/29 10:23:12;;;;;;;9.45;3.22;;;21.00;94.20;;;;;;4954951;29;20118;-77
2021/07/29 10:25:53;;;;;;;9.43;3.50;;;21.00;93.70;;;;;;4955779;29;20057;-75
2021/07/29 10:28:35;;;;;;;6.65;2.65;;;21.10;93.60;;;;;;4955210;29;20507;-73
2021/07/29 10:31:02;;;;;;;10.07;3.47;;;21.10;94.50;;;;;;4937419;29;20454;-73
2021/07/29 10:33:29;;;;;;;9.15;3.15;;;21.00;93.70;;;;;;4955483;29;20031;-79
2021/07/29 10:35:56;;;;;;;7.85;3.42;;;20.90;93.70;;;;;;4938592;29;20424;-73
2021/07/29 10:38:43;;;;;;;7.70;3.00;;;20.60;94.00;;;;;;4954888;29;20111;-80
2021/07/29 10:41:08;;;;;;;9.43;4.13;;;20.20;97.20;;;;;;4955630;29;20066;-73
2021/07/29 10:43:39;;;;;;;8.30;3.17;;;19.80;99.20;;;;;;4955011;29;20067;-73
2021/07/29 10:46:04;;;;;;;8.35;3.50;;;19.70;99.90;;;;;;4954865;29;20074;-75
2021/07/29 10:48:43;;;;;;;9.18;3.17;;;19.70;99.90;;;;;;4954928;29;20027;-81
2021/07/29 10:51:16;;;;;;;11.60;4.32;;;19.70;99.90;;;;;;4954633;29;20034;-82
2021/07/29 10:53:50;;;;;;;14.45;4.63;;;19.50;99.90;;;;;;4955719;29;20019;-74
2021/07/29 10:56:20;;;;;;;15.52;4.88;;;18.80;99.90;;;;;;4938245;29;20028;-74
2021/07/29 10:58:48;;;;;;;15.88;4.63;;;18.00;99.90;;;;;;4938037;29;20027;-83
2021/07/29 11:01:15;;;;;;;12.05;4.00;;;17.40;99.90;;;;;;4937724;29;20051;-77
2021/07/29 11:06:40;;;;;;;7.95;4.20;;;16.90;99.90;;;;;;4954730;29;20036;-81
2021/07/29 11:09:16;;;;;;;15.57;4.60;;;17.20;99.90;;;;;;4938459;29;20133;-79
2021/07/29 11:11:43;;;;;;;10.60;4.10;;;17.20;99.90;;;;;;4938199;29;20487;-76
2021/07/29 11:14:10;;;;;;;7.85;4.20;;;17.10;99.90;;;;;;4937323;29;20031;-80
2021/07/29 11:16:37;;;;;;;14.65;4.40;;;17.00;99.90;;;;;;4938625;29;20034;-79
2021/07/29 11:19:04;;;;;;;12.10;5.35;;;17.00;99.90;;;;;;4938022;29;20020;-76
2021/07/29 11:21:31;;;;;;;13.70;4.88;;;17.10;99.90;;;;;;4954415;29;20094;-75
2021/07/29 11:23:56;;;;;;;10.73;4.47;;;17.10;99.90;;;;;;4938362;29;20044;-75
2021/07/29 11:26:22;;;;;;;13.75;5.60;;;17.50;99.90;;;;;;4937465;29;20031;-80
2021/07/29 11:29:07;;;;;;;13.57;6.15;;;17.80;99.90;;;;;;4938209;29;20087;-82
2021/07/29 11:31:37;;;;;;;10.63;4.85;;;18.10;99.90;;;;;;4955194;29;20093;-86
2021/07/29 11:34:03;;;;;;;8.45;3.28;;;18.30;99.90;;;;;;4954695;29;20046;-87
2021/07/29 11:36:30;;;;;;;9.77;3.72;;;18.30;99.90;;;;;;4954744;29;20468;-82
2021/07/29 11:39:03;;;;;;;13.25;4.05;;;18.40;99.90;;;;;;4955598;29;20023;-78
2021/07/29 11:41:30;;;;;;;10.30;3.97;;;18.70;99.90;;;;;;4954252;29;20055;-76
2021/07/29 11:44:00;;;;;;;9.13;3.70;;;18.90;99.90;;;;;;4938242;29;20040;-85
2021/07/29 11:46:26;;;;;;;9.15;3.92;;;19.10;99.90;;;;;;4955011;29;20472;-81
2021/07/29 11:49:02;;;;;;;10.40;3.88;;;19.20;99.90;;;;;;4954679;29;20110;-79
2021/07/29 11:51:27;;;;;;;9.35;4.00;;;19.20;99.90;;;;;;4954712;29;20019;-79
2021/07/29 11:53:53;;;;;;;14.90;3.75;;;19.00;99.90;;;;;;4938006;29;20031;-83
2021/07/29 11:56:18;;;;;;;11.40;3.85;;;18.90;99.90;;;;;;4953991;29;20027;-76
2021/07/29 11:58:59;;;;;;;10.85;3.75;;;18.70;99.90;;;;;;4938011;29;20083;-83
2021/07/29 12:01:25;;;;;;;10.40;3.20;;;18.60;99.90;;;;;;4936638;29;20031;-81
2021/07/29 12:03:53;;;;;;;10.43;3.40;;;18.60;99.90;;;;;;4954939;29;20098;-74
2021/07/29 12:06:20;;;;;;;9.73;3.08;;;18.60;99.90;;;;;;4954646;29;20032;-76
2021/07/29 12:08:47;;;;;;;10.55;3.20;;;18.60;99.90;;;;;;4954284;29;20031;-81
2021/07/29 12:11:15;;;;;;;10.73;3.92;;;18.60;99.90;;;;;;4937185;29;20118;-73
2021/07/29 12:13:42;;;;;;;9.85;3.83;;;18.60;99.90;;;;;;4955086;29;20023;-78
2021/07/29 12:16:08;;;;;;;8.23;3.17;;;18.70;99.90;;;;;;4936992;29;20020;-83
2021/07/29 12:18:34;;;;;;;11.80;4.45;;;18.90;99.90;;;;;;4954521;29;20480;-84
2021/07/29 12:21:00;;;;;;;10.55;4.15;;;19.00;99.90;;;;;;4937755;29;20027;-84
2021/07/29 12:23:27;;;;;;;12.30;4.32;;;19.00;99.90;;;;;;4936621;29;20031;-81
2021/07/29 12:25:54;;;;;;;9.23;3.53;;;19.00;99.90;;;;;;4937343;29;20099;-84
2021/07/29 12:28:43;;;;;;;9.13;3.65;;;19.00;99.90;;;;;;4954466;29;20058;-74
2021/07/29 12:31:23;;;;;;;9.10;3.13;;;19.10;99.90;;;;;;4936659;29;20023;-76
2021/07/29 12:34:06;;;;;;;7.43;3.28;;;19.20;99.90;;;;;;4941170;29;20031;-82
2021/07/29 12:36:48;;;;;;;9.63;3.50;;;19.50;99.90;;;;;;4940218;29;20028;-80
2021/07/29 12:39:16;;;;;;;8.95;3.60;;;19.80;99.90;;;;;;4957509;29;20032;-85
2021/07/29 12:41:44;;;;;;;11.23;3.53;;;20.00;99.90;;;;;;4957816;29;20031;-81
2021/07/29 12:44:18;;;;;;;10.23;3.67;;;20.10;99.90;;;;;;4957385;29;20035;-79
2021/07/29 12:46:48;;;;;;;9.15;3.40;;;20.10;99.90;;;;;;4957918;29;20030;-78
2021/07/29 12:49:15;;;;;;;13.00;4.07;;;20.00;99.90;;;;;;4940480;29;20451;-81